Terminal Aerodrome Forecast
Issued by NWS Knoxville/Tri Cities, TN

Home | Current Version | Previous Version | Text Only | Print | Product List | Glossary On
Versions: 1 2 3 4 5 6 7 8 9 10 11 12 13 14 15 16 17 18 19 20 21 22 23 24 25 26 27 28 29 30 31
000
FTUS44 KMRX 032335
TAFTYS
TAF
KTYS 032335Z 0400/0424 VRB04KT 5SM -RA BR SCT007 BKN015 OVC025
      TEMPO 0400/0404 2SM -RA BR OVC007
     FM040800 22012KT 6SM BR VCSH SCT025 BKN070
     FM041200 23014G22KT P6SM SCT035 SCT050 BKN080
     FM042000 25012KT 4SM -SHRA BR OVC035=

USA.gov is the U.S. government's official web portal to all federal, state and local government web resources and services.